createdAt,value
2023-04-23T00:01:08.176Z,10.33
2023-04-23T00:05:11.923Z,11.23
2023-04-23T00:09:15.190Z,11.47
2023-04-23T00:13:16.598Z,11.13
2023-04-23T00:17:17.699Z,11.50
2023-04-23T00:21:18.912Z,10.40
2023-04-23T00:25:20.201Z,11.40
2023-04-23T00:29:21.404Z,10.00
2023-04-23T00:33:22.460Z,11.87
2023-04-23T00:37:23.540Z,11.07
2023-04-23T00:41:26.700Z,11.47
2023-04-23T00:45:28.039Z,11.23
2023-04-23T00:49:31.439Z,10.80
2023-04-23T00:53:33.428Z,10.10
2023-04-23T00:57:37.342Z,10.93
2023-04-23T01:01:38.514Z,10.97
2023-04-23T01:05:41.691Z,9.53
2023-04-23T01:09:43.522Z,9.00
2023-04-23T01:13:44.723Z,5.83
2023-04-23T01:17:46.694Z,6.20
2023-04-23T01:21:49.351Z,5.70
2023-04-23T01:25:50.530Z,5.63
2023-04-23T01:29:51.854Z,6.27
2023-04-23T01:33:54.648Z,6.60
2023-04-23T01:37:58.400Z,6.13
2023-04-23T01:42:00.816Z,6.13
2023-04-23T01:46:02.342Z,6.97
2023-04-23T01:50:04.624Z,6.90
2023-04-23T01:54:05.722Z,6.83
2023-04-23T02:02:07.827Z,8.30
2023-04-23T02:06:09.497Z,10.07
2023-04-23T02:10:10.954Z,8.03
2023-04-23T02:14:12.232Z,10.13
2023-04-23T02:18:13.248Z,9.50
2023-04-23T02:22:14.882Z,9.23
2023-04-23T02:26:16.292Z,8.70
2023-04-23T02:30:17.396Z,9.33
2023-04-23T02:34:18.481Z,9.37
2023-04-23T02:38:19.604Z,9.00
2023-04-23T02:42:20.768Z,9.83
2023-04-23T02:46:21.793Z,9.87
2023-04-23T02:50:23.294Z,9.83
2023-04-23T02:54:25.550Z,11.13
2023-04-23T02:58:26.806Z,11.20
2023-04-23T03:02:28.095Z,12.77
2023-04-23T03:06:31.454Z,12.10
2023-04-23T03:10:32.483Z,11.37
2023-04-23T03:14:33.699Z,12.20
2023-04-23T03:18:34.963Z,12.30
2023-04-23T03:22:36.188Z,12.47
2023-04-23T03:26:37.435Z,12.13
2023-04-23T03:30:38.694Z,11.53
2023-04-23T03:34:40.176Z,10.13
2023-04-23T03:38:41.384Z,11.33
2023-04-23T03:42:42.386Z,10.40
2023-04-23T03:46:43.610Z,8.90
2023-04-23T03:50:44.790Z,9.40
2023-04-23T03:54:45.855Z,7.60
2023-04-23T03:58:46.853Z,7.77
2023-04-23T04:02:48.153Z,7.67
2023-04-23T04:06:49.467Z,7.47
2023-04-23T04:10:50.580Z,6.97
2023-04-23T04:14:51.857Z,7.10
2023-04-23T04:18:55.774Z,7.80
2023-04-23T04:22:56.243Z,8.70
2023-04-23T04:27:02.370Z,7.13
2023-04-23T04:31:05.057Z,8.17
2023-04-23T04:35:08.294Z,9.47
2023-04-23T04:39:09.704Z,9.53
2023-04-23T04:43:10.682Z,10.00
2023-04-23T04:47:13.146Z,9.17
2023-04-23T04:51:15.114Z,9.70
2023-04-23T04:55:16.220Z,8.73
2023-04-23T04:59:17.234Z,8.80
2023-04-23T05:03:18.910Z,10.27
2023-04-23T05:07:20.262Z,9.03
2023-04-23T05:11:21.303Z,8.03
2023-04-23T05:15:22.499Z,7.90
2023-04-23T05:19:23.610Z,8.83
2023-04-23T05:23:24.598Z,8.63
2023-04-23T05:27:26.375Z,7.07
2023-04-23T05:31:29.322Z,7.10
2023-04-23T05:35:31.571Z,8.00
2023-04-23T05:39:32.636Z,9.30
2023-04-23T05:43:33.878Z,9.20
2023-04-23T05:47:35.146Z,10.57
2023-04-23T05:51:36.356Z,9.67
2023-04-23T05:55:37.366Z,9.80
2023-04-23T05:59:38.507Z,11.23
2023-04-23T06:03:42.062Z,10.73
2023-04-23T06:07:43.625Z,11.40
2023-04-23T06:11:44.737Z,11.33
2023-04-23T06:15:45.954Z,10.17
2023-04-23T06:19:46.879Z,8.57
2023-04-23T06:23:48.201Z,8.60
2023-04-23T06:27:49.296Z,8.53
2023-04-23T06:31:50.437Z,7.87
2023-04-23T06:35:51.629Z,7.50
2023-04-23T06:39:52.737Z,8.47
2023-04-23T06:43:53.714Z,8.60
2023-04-23T06:47:54.957Z,6.23
2023-04-23T06:51:57.908Z,5.47
2023-04-23T06:55:59.468Z,4.97
2023-04-23T07:00:00.763Z,5.13
2023-04-23T07:04:01.807Z,4.40
2023-04-23T07:08:02.714Z,4.93
2023-04-23T07:12:04.115Z,4.40
2023-04-23T07:16:05.208Z,4.37
2023-04-23T07:20:07.592Z,4.10
2023-04-23T07:24:08.569Z,4.17
2023-04-23T07:28:09.575Z,3.83
2023-04-23T07:32:10.950Z,4.80
2023-04-23T07:36:12.347Z,4.57
2023-04-23T07:40:13.431Z,4.13
2023-04-23T07:44:14.986Z,4.90
2023-04-23T07:48:16.088Z,5.07
2023-04-23T07:52:17.439Z,5.50
2023-04-23T07:56:19.316Z,4.53
2023-04-23T08:00:20.262Z,4.07
2023-04-23T08:04:21.806Z,4.60
2023-04-23T08:08:23.246Z,5.30
2023-04-23T08:12:24.277Z,6.00
2023-04-23T08:16:25.642Z,4.97
2023-04-23T08:20:26.522Z,4.87
2023-04-23T08:24:27.733Z,6.20
2023-04-23T08:28:29.560Z,5.37
2023-04-23T08:32:30.589Z,5.73
2023-04-23T08:36:32.199Z,4.80
2023-04-23T08:40:37.001Z,4.83
2023-04-23T08:44:41.383Z,5.30
2023-04-23T08:48:44.860Z,5.97
2023-04-23T08:52:57.543Z,6.47
2023-04-23T08:57:00.206Z,6.57
2023-04-23T09:01:03.986Z,6.40
2023-04-23T09:05:05.951Z,7.13
2023-04-23T09:09:08.593Z,7.73
2023-04-23T09:13:11.952Z,9.07
2023-04-23T09:17:13.074Z,8.80
2023-04-23T09:21:14.031Z,8.10
2023-04-23T09:25:18.092Z,7.67
2023-04-23T09:29:22.636Z,7.40
2023-04-23T09:33:23.916Z,7.07
2023-04-23T09:37:26.122Z,4.83
2023-04-23T09:41:28.297Z,4.73
2023-04-23T09:45:30.255Z,5.37
2023-04-23T09:49:31.471Z,4.40
2023-04-23T09:53:42.815Z,4.07
2023-04-23T09:57:43.862Z,4.60
2023-04-23T10:01:45.391Z,5.40
2023-04-23T10:09:50.263Z,6.53
2023-04-23T10:13:54.636Z,5.93
2023-04-23T10:17:56.171Z,4.50
2023-04-23T10:22:12.158Z,4.70
2023-04-23T10:26:05.450Z,4.20
2023-04-23T10:30:08.887Z,4.27
2023-04-23T10:34:10.616Z,3.43
2023-04-23T10:38:12.095Z,3.60
2023-04-23T10:42:13.785Z,3.60
2023-04-23T10:46:31.052Z,3.20
2023-04-23T10:50:37.890Z,3.40
2023-04-23T10:54:41.174Z,3.23
2023-04-23T10:59:02.294Z,2.63
2023-04-23T11:03:03.824Z,4.10
2023-04-23T11:07:09.842Z,3.80
2023-04-23T11:11:11.038Z,4.17
2023-04-23T11:15:17.952Z,4.57
2023-04-23T11:19:20.541Z,4.03
2023-04-23T11:23:31.412Z,5.23
2023-04-23T11:27:32.766Z,5.00
2023-04-23T11:31:34.229Z,4.77
2023-04-23T11:35:37.315Z,4.90
2023-04-23T11:39:43.502Z,6.30
2023-04-23T11:43:45.092Z,4.70
2023-04-23T11:47:48.114Z,4.40
2023-04-23T11:51:49.192Z,5.80
2023-04-23T11:55:53.739Z,4.47
2023-04-23T11:59:54.994Z,4.77
2023-04-23T12:03:56.209Z,5.17
2023-04-23T12:08:12.045Z,4.27
2023-04-23T12:12:14.820Z,2.03
2023-04-23T12:16:16.027Z,1.90
2023-04-23T12:20:20.659Z,2.47
2023-04-23T12:24:27.178Z,2.43
2023-04-23T12:28:28.207Z,3.40
2023-04-23T12:32:29.382Z,3.20
2023-04-23T12:36:31.389Z,3.20
2023-04-23T12:40:32.910Z,2.90
2023-04-23T12:44:37.151Z,2.60
2023-04-23T12:48:38.272Z,2.40
2023-04-23T12:52:39.884Z,2.60
2023-04-23T12:56:41.095Z,2.53
2023-04-23T13:00:42.546Z,2.80
2023-04-23T13:04:43.861Z,3.30
2023-04-23T13:08:45.193Z,3.50
2023-04-23T13:12:46.308Z,4.00
2023-04-23T13:16:47.526Z,3.67
2023-04-23T13:20:48.615Z,3.70
2023-04-23T13:24:49.579Z,3.33
2023-04-23T13:28:50.728Z,3.70
2023-04-23T13:32:53.599Z,3.77
2023-04-23T13:36:54.971Z,3.20
2023-04-23T13:40:56.395Z,4.00
2023-04-23T13:44:57.613Z,3.87
2023-04-23T13:49:00.424Z,3.63
2023-04-23T13:53:01.550Z,3.60
2023-04-23T13:57:02.755Z,3.90
2023-04-23T14:01:04.526Z,4.50
2023-04-23T14:05:07.844Z,9.00
2023-04-23T14:09:10.048Z,5.40
2023-04-23T14:13:11.871Z,3.40
2023-04-23T14:17:13.010Z,3.40
2023-04-23T14:21:16.297Z,3.40
2023-04-23T14:25:32.487Z,3.60
2023-04-23T14:29:51.570Z,3.03
2023-04-23T14:33:53.370Z,3.03
2023-04-23T14:37:54.687Z,2.93
2023-04-23T14:41:56.040Z,2.83
2023-04-23T14:45:57.137Z,3.20
2023-04-23T14:50:00.127Z,2.87
2023-04-23T14:54:01.315Z,3.00
2023-04-23T14:58:02.297Z,2.70
2023-04-23T15:02:03.539Z,2.37
2023-04-23T15:06:06.283Z,2.10
2023-04-23T15:10:10.807Z,3.80
2023-04-23T15:14:21.855Z,2.03
2023-04-23T15:18:23.013Z,2.30
2023-04-23T15:22:24.265Z,2.63
2023-04-23T15:26:25.914Z,3.03
2023-04-23T15:30:27.665Z,2.00
2023-04-23T15:34:28.802Z,1.73
2023-04-23T15:38:30.355Z,2.00
2023-04-23T15:42:32.170Z,2.00
2023-04-23T15:46:33.242Z,1.73
2023-04-23T15:50:35.125Z,1.83
2023-04-23T15:54:36.715Z,1.83
2023-04-23T15:58:38.147Z,2.10
2023-04-23T16:02:39.784Z,2.03
2023-04-23T16:06:41.394Z,1.70
2023-04-23T16:10:42.793Z,1.80
2023-04-23T16:14:43.769Z,2.30
2023-04-23T16:18:45.006Z,2.67
2023-04-23T16:22:46.105Z,1.87
2023-04-23T16:26:47.424Z,1.97
2023-04-23T16:30:48.435Z,2.47
2023-04-23T16:34:49.523Z,2.13
2023-04-23T16:38:50.940Z,2.33
2023-04-23T16:45:53.861Z,3.35
2023-04-23T16:49:54.900Z,3.13
2023-04-23T16:53:56.480Z,3.73
2023-04-23T16:57:57.805Z,3.23
2023-04-23T17:01:58.831Z,3.17
2023-04-23T17:06:11.906Z,2.87
2023-04-23T17:10:14.761Z,3.73
2023-04-23T17:14:15.780Z,2.73
2023-04-23T17:18:16.776Z,2.97
2023-04-23T17:22:18.013Z,3.00
2023-04-23T17:26:19.044Z,3.27
2023-04-23T17:30:20.463Z,2.87
2023-04-23T17:34:21.733Z,3.93
2023-04-23T17:38:23.913Z,3.73
2023-04-23T17:42:24.960Z,4.57
2023-04-23T17:46:26.322Z,4.00
2023-04-23T17:50:28.027Z,4.13
2023-04-23T17:54:29.150Z,3.57
2023-04-23T17:58:30.172Z,3.07
2023-04-23T18:02:31.409Z,2.20
2023-04-23T18:06:33.266Z,2.23
2023-04-23T18:10:34.722Z,2.00
2023-04-23T18:14:35.721Z,1.50
2023-04-23T18:18:36.964Z,1.60
2023-04-23T18:22:40.693Z,1.40
2023-04-23T18:26:42.073Z,2.43
2023-04-23T18:30:43.251Z,2.00
2023-04-23T18:34:44.796Z,2.10
2023-04-23T18:38:46.137Z,2.70
2023-04-23T18:42:47.419Z,3.03
2023-04-23T18:46:48.946Z,3.00
2023-04-23T18:50:50.404Z,2.50
2023-04-23T18:54:52.048Z,3.07
2023-04-23T18:58:54.754Z,2.90
2023-04-23T19:02:56.258Z,2.90
2023-04-23T19:06:57.882Z,2.97
2023-04-23T19:10:59.422Z,3.00
2023-04-23T19:15:00.514Z,3.67
2023-04-23T19:19:02.672Z,2.90
2023-04-23T19:23:04.332Z,4.17
2023-04-23T19:27:06.960Z,3.40
2023-04-23T19:31:08.631Z,3.87
2023-04-23T19:35:11.773Z,4.83
2023-04-23T19:39:12.983Z,4.07
2023-04-23T19:43:14.872Z,3.77
2023-04-23T19:47:16.740Z,3.43
2023-04-23T19:51:20.275Z,3.03
2023-04-23T19:55:25.345Z,3.93
2023-04-23T19:59:26.746Z,2.87
2023-04-23T20:03:28.864Z,2.63
2023-04-23T20:07:30.458Z,3.97
2023-04-23T20:11:32.233Z,3.70
2023-04-23T20:15:33.275Z,3.30
2023-04-23T20:19:34.473Z,3.50
2023-04-23T20:23:35.600Z,2.97
2023-04-23T20:27:37.204Z,3.93
2023-04-23T20:31:38.758Z,3.23
2023-04-23T20:35:41.384Z,3.30
2023-04-23T20:39:42.743Z,2.77
2023-04-23T20:43:44.746Z,2.63
2023-04-23T20:47:46.969Z,1.87
2023-04-23T20:51:48.008Z,1.73
2023-04-23T20:55:49.280Z,2.10
2023-04-23T20:59:50.319Z,1.60
2023-04-23T21:03:52.775Z,2.13
2023-04-23T21:07:54.352Z,2.00
2023-04-23T21:11:56.274Z,2.00
2023-04-23T21:15:57.466Z,1.90
2023-04-23T21:20:00.068Z,1.67
2023-04-23T21:24:01.273Z,2.10
2023-04-23T21:28:03.011Z,1.80
2023-04-23T21:32:04.219Z,1.63
2023-04-23T21:36:05.953Z,1.50
2023-04-23T21:40:09.772Z,2.37
2023-04-23T21:44:10.852Z,2.60
2023-04-23T21:48:14.566Z,2.47
2023-04-23T21:52:16.943Z,2.50
2023-04-23T21:56:18.048Z,2.60
2023-04-23T22:00:19.840Z,2.60
2023-04-23T22:04:21.909Z,2.80
2023-04-23T22:08:24.402Z,1.97
2023-04-23T22:12:26.036Z,2.33
2023-04-23T22:16:29.094Z,2.90
2023-04-23T22:20:30.691Z,3.17
2023-04-23T22:24:31.950Z,2.47
2023-04-23T22:28:33.408Z,2.90
2023-04-23T22:32:35.920Z,2.33
2023-04-23T22:36:37.101Z,2.73
2023-04-23T22:40:38.757Z,2.97
2023-04-23T22:44:40.096Z,2.40
2023-04-23T22:48:43.524Z,2.70
2023-04-23T22:52:44.903Z,2.53
2023-04-23T22:56:46.180Z,2.40
2023-04-23T23:00:47.270Z,2.70
2023-04-23T23:04:48.619Z,2.57
2023-04-23T23:08:50.000Z,3.10
2023-04-23T23:12:52.058Z,2.60
2023-04-23T23:16:55.669Z,3.20
2023-04-23T23:20:56.960Z,2.90
2023-04-23T23:24:58.544Z,2.53
2023-04-23T23:29:00.160Z,3.30
2023-04-23T23:33:01.437Z,3.43
2023-04-23T23:37:02.466Z,3.37
2023-04-23T23:41:03.587Z,3.63
2023-04-23T23:45:05.100Z,3.10
2023-04-23T23:49:06.628Z,2.43
2023-04-23T23:53:07.831Z,2.50
2023-04-23T23:57:10.366Z,3.03
